createdAt,value
2016-11-09T00:00:36.770Z,1004.29
2016-11-09T00:01:36.716Z,1004.35
2016-11-09T00:02:36.650Z,1004.32
2016-11-09T00:03:36.585Z,1004.37
2016-11-09T00:04:36.530Z,1004.34
2016-11-09T00:05:36.462Z,1004.32
2016-11-09T00:06:36.401Z,1004.35
2016-11-09T00:07:36.338Z,1004.33
2016-11-09T00:08:36.279Z,1004.33
2016-11-09T00:09:36.214Z,1004.34
2016-11-09T00:10:36.153Z,1004.38
2016-11-09T00:11:36.096Z,1004.41
2016-11-09T00:12:36.033Z,1004.41
2016-11-09T00:13:35.969Z,1004.39
2016-11-09T00:14:35.906Z,1004.45
2016-11-09T00:15:35.845Z,1004.44
2016-11-09T00:16:35.784Z,1004.4
2016-11-09T00:17:35.722Z,1004.42
2016-11-09T00:18:35.661Z,1004.43
2016-11-09T00:19:35.599Z,1004.45
2016-11-09T00:20:35.537Z,1004.46
2016-11-09T00:21:35.475Z,1004.49
2016-11-09T00:22:35.415Z,1004.49
2016-11-09T00:23:35.355Z,1004.48
2016-11-09T00:24:35.290Z,1004.46
2016-11-09T00:25:35.229Z,1004.47
2016-11-09T00:26:35.167Z,1004.49
2016-11-09T00:27:35.105Z,1004.49
2016-11-09T00:28:35.245Z,1004.46
2016-11-09T00:29:34.983Z,1004.5
2016-11-09T00:30:34.925Z,1004.48
2016-11-09T00:31:34.857Z,1004.5
2016-11-09T00:32:34.796Z,1004.47
2016-11-09T00:33:34.735Z,1004.49
2016-11-09T00:34:34.673Z,1004.47
2016-11-09T00:35:34.610Z,1004.46
2016-11-09T00:36:34.549Z,1004.47
2016-11-09T00:37:34.487Z,1004.47
2016-11-09T00:38:34.425Z,1004.48
2016-11-09T00:39:34.364Z,1004.44
2016-11-09T00:40:34.303Z,1004.48
2016-11-09T00:41:34.241Z,1004.45
2016-11-09T00:42:34.180Z,1004.45
2016-11-09T00:43:34.118Z,1004.44
2016-11-09T00:44:34.055Z,1004.42
2016-11-09T00:45:33.996Z,1004.47
2016-11-09T00:46:33.933Z,1004.44
2016-11-09T00:47:33.990Z,1004.43
2016-11-09T00:48:33.811Z,1004.46
2016-11-09T00:49:33.751Z,1004.48
2016-11-09T00:50:33.686Z,1004.46
2016-11-09T00:51:33.624Z,1004.47
2016-11-09T00:52:33.565Z,1004.44
2016-11-09T00:53:33.499Z,1004.45
2016-11-09T00:54:33.640Z,1004.41
2016-11-09T00:55:33.377Z,1004.41
2016-11-09T00:56:33.316Z,1004.44
2016-11-09T00:57:33.253Z,1004.43
2016-11-09T00:58:33.192Z,1004.4
2016-11-09T00:59:33.130Z,1004.46
2016-11-09T01:00:33.069Z,1004.41
2016-11-09T01:01:33.007Z,1004.39
2016-11-09T01:02:32.944Z,1004.39
2016-11-09T01:03:32.882Z,1004.41
2016-11-09T01:04:32.820Z,1004.4
2016-11-09T01:05:32.759Z,1004.37
2016-11-09T01:06:32.697Z,1004.38
2016-11-09T01:07:32.636Z,1004.4
2016-11-09T01:08:32.573Z,1004.39
2016-11-09T01:09:32.520Z,1004.42
2016-11-09T01:10:32.452Z,1004.47
2016-11-09T01:11:32.390Z,1004.39
2016-11-09T01:12:32.328Z,1004.44
2016-11-09T01:13:32.266Z,1004.44
2016-11-09T01:14:32.206Z,1004.4
2016-11-09T01:15:32.142Z,1004.42
2016-11-09T01:16:32.080Z,1004.45
2016-11-09T01:17:32.020Z,1004.43
2016-11-09T01:18:31.959Z,1004.38
2016-11-09T01:19:31.895Z,1004.38
2016-11-09T01:20:31.832Z,1004.38
2016-11-09T01:21:31.773Z,1004.38
2016-11-09T01:22:31.710Z,1004.43
2016-11-09T01:23:31.649Z,1004.39
2016-11-09T01:24:31.588Z,1004.4
2016-11-09T01:25:31.524Z,1004.41
2016-11-09T01:26:31.468Z,1004.41
2016-11-09T01:27:31.401Z,1004.4
2016-11-09T01:28:31.339Z,1004.39
2016-11-09T01:29:31.277Z,1004.37
2016-11-09T01:30:31.215Z,1004.37
2016-11-09T01:31:31.155Z,1004.34
2016-11-09T01:32:31.092Z,1004.36
2016-11-09T01:33:31.032Z,1004.39
2016-11-09T01:34:30.969Z,1004.41
2016-11-09T01:35:30.908Z,1004.43
2016-11-09T01:36:30.847Z,1004.39
2016-11-09T01:37:30.782Z,1004.41
2016-11-09T01:38:30.727Z,1004.37
2016-11-09T01:39:30.659Z,1004.35
2016-11-09T01:40:30.599Z,1004.38
2016-11-09T01:41:30.535Z,1004.38
2016-11-09T01:42:30.474Z,1004.34
2016-11-09T01:43:30.414Z,1004.36
2016-11-09T01:44:30.350Z,1004.35
2016-11-09T01:45:30.288Z,1004.31
2016-11-09T01:46:30.227Z,1004.32
2016-11-09T01:47:30.166Z,1004.34
2016-11-09T01:48:30.106Z,1004.33
2016-11-09T01:49:30.043Z,1004.34
2016-11-09T01:50:29.982Z,1004.34
2016-11-09T01:51:29.919Z,1004.31
2016-11-09T01:52:29.859Z,1004.35
2016-11-09T01:53:29.795Z,1004.33
2016-11-09T01:54:29.736Z,1004.31
2016-11-09T01:55:29.673Z,1004.34
2016-11-09T01:56:29.611Z,1004.29
2016-11-09T01:57:29.549Z,1004.27
2016-11-09T01:58:29.487Z,1004.28
2016-11-09T01:59:29.425Z,1004.32
2016-11-09T02:00:29.364Z,1004.28
2016-11-09T02:01:29.301Z,1004.28
2016-11-09T02:02:29.239Z,1004.29
2016-11-09T02:03:29.180Z,1004.29
2016-11-09T02:04:29.116Z,1004.27
2016-11-09T02:05:29.055Z,1004.23
2016-11-09T02:06:28.993Z,1004.23
2016-11-09T02:07:28.933Z,1004.22
2016-11-09T02:08:28.869Z,1004.22
2016-11-09T02:09:28.808Z,1004.21
2016-11-09T02:10:28.745Z,1004.21
2016-11-09T02:11:28.685Z,1004.21
2016-11-09T02:12:28.623Z,1004.18
2016-11-09T02:13:28.560Z,1004.15
2016-11-09T02:14:28.498Z,1004.16
2016-11-09T02:15:28.437Z,1004.1
2016-11-09T02:16:28.379Z,1004.11
2016-11-09T02:17:28.312Z,1004.1
2016-11-09T02:18:28.251Z,1004.1
2016-11-09T02:19:28.190Z,1004.09
2016-11-09T02:20:28.128Z,1004.11
2016-11-09T02:21:28.066Z,1004.13
2016-11-09T02:22:28.008Z,1004.1
2016-11-09T02:23:27.943Z,1004.09
2016-11-09T02:24:27.881Z,1004.1
2016-11-09T02:25:27.819Z,1004.08
2016-11-09T02:26:27.762Z,1004.04
2016-11-09T02:27:27.698Z,1004.02
2016-11-09T02:28:27.635Z,1004.03
2016-11-09T02:29:27.575Z,1004.04
2016-11-09T02:30:27.519Z,1004.06
2016-11-09T02:31:27.450Z,1004.05
2016-11-09T02:32:27.389Z,1004.03
2016-11-09T02:33:27.327Z,1004.03
2016-11-09T02:34:27.264Z,1004.05
2016-11-09T02:35:27.202Z,1004
2016-11-09T02:36:27.139Z,1003.99
2016-11-09T02:37:27.077Z,1003.95
2016-11-09T02:38:27.029Z,1004.02
2016-11-09T02:39:26.954Z,1004.02
2016-11-09T02:40:26.892Z,1004.03
2016-11-09T02:41:26.831Z,1004.03
2016-11-09T02:42:26.771Z,1004
2016-11-09T02:43:26.711Z,1004.01
2016-11-09T02:44:26.647Z,1004
2016-11-09T02:45:26.586Z,1003.99
2016-11-09T02:46:26.522Z,1003.95
2016-11-09T02:47:26.460Z,1003.95
2016-11-09T02:48:26.399Z,1003.89
2016-11-09T02:49:26.338Z,1003.93
2016-11-09T02:50:26.274Z,1003.92
2016-11-09T02:51:26.214Z,1003.94
2016-11-09T02:52:26.151Z,1003.93
2016-11-09T02:53:26.090Z,1003.94
2016-11-09T02:54:26.027Z,1003.93
2016-11-09T02:55:25.967Z,1003.96
2016-11-09T02:56:25.904Z,1003.91
2016-11-09T02:57:25.841Z,1003.93
2016-11-09T02:58:25.780Z,1003.91
2016-11-09T02:59:25.719Z,1003.94
2016-11-09T03:00:25.657Z,1003.91
2016-11-09T03:01:25.596Z,1003.91
2016-11-09T03:02:25.533Z,1003.91
2016-11-09T03:03:25.471Z,1003.89
2016-11-09T03:04:25.410Z,1003.9
2016-11-09T03:05:25.347Z,1003.89
2016-11-09T03:06:25.286Z,1003.92
2016-11-09T03:07:25.225Z,1003.88
2016-11-09T03:08:25.162Z,1003.87
2016-11-09T03:09:25.101Z,1003.84
2016-11-09T03:10:25.040Z,1003.87
2016-11-09T03:11:24.978Z,1003.87
2016-11-09T03:12:24.916Z,1003.88
2016-11-09T03:13:24.853Z,1003.87
2016-11-09T03:14:24.792Z,1003.87
2016-11-09T03:15:24.732Z,1003.86
2016-11-09T03:16:24.669Z,1003.86
2016-11-09T03:17:24.607Z,1003.87
2016-11-09T03:18:24.545Z,1003.85
2016-11-09T03:19:24.482Z,1003.84
2016-11-09T03:20:24.420Z,1003.83
2016-11-09T03:21:24.360Z,1003.84
2016-11-09T03:22:24.299Z,1003.81
2016-11-09T03:23:24.237Z,1003.82
2016-11-09T03:24:24.173Z,1003.82
2016-11-09T03:25:24.112Z,1003.86
2016-11-09T03:26:24.051Z,1003.87
2016-11-09T03:27:23.989Z,1003.84
2016-11-09T03:28:23.929Z,1003.81
2016-11-09T03:29:23.867Z,1003.81
2016-11-09T03:30:23.803Z,1003.85
2016-11-09T03:31:23.742Z,1003.83
2016-11-09T03:32:23.680Z,1003.78
2016-11-09T03:33:23.618Z,1003.79
2016-11-09T03:34:23.556Z,1003.8
2016-11-09T03:35:23.497Z,1003.83
2016-11-09T03:36:23.433Z,1003.83
2016-11-09T03:37:23.371Z,1003.83
2016-11-09T03:38:23.309Z,1003.86
2016-11-09T03:39:23.249Z,1003.83
2016-11-09T03:40:23.186Z,1003.83
2016-11-09T03:41:23.125Z,1003.81
2016-11-09T03:42:23.063Z,1003.8
2016-11-09T03:43:23.001Z,1003.83
2016-11-09T03:44:22.939Z,1003.84
2016-11-09T03:45:22.877Z,1003.84
2016-11-09T03:46:22.815Z,1003.85
2016-11-09T03:47:22.754Z,1003.83
2016-11-09T03:48:22.691Z,1003.85
2016-11-09T03:49:22.630Z,1003.85
2016-11-09T03:50:22.568Z,1003.83
2016-11-09T03:51:22.507Z,1003.85
2016-11-09T03:52:22.444Z,1003.87
2016-11-09T03:53:22.383Z,1003.86
2016-11-09T03:54:22.322Z,1003.87
2016-11-09T03:55:22.269Z,1003.81
2016-11-09T03:56:22.198Z,1003.78
2016-11-09T03:57:22.137Z,1003.79
2016-11-09T03:58:22.074Z,1003.81
2016-11-09T03:59:22.012Z,1003.82
2016-11-09T04:00:21.950Z,1003.83
2016-11-09T04:01:21.890Z,1003.83
2016-11-09T04:02:21.827Z,1003.82
2016-11-09T04:03:21.765Z,1003.82
2016-11-09T04:04:21.705Z,1003.82
2016-11-09T04:05:21.642Z,1003.79
2016-11-09T04:06:21.579Z,1003.79
2016-11-09T04:07:21.517Z,1003.8
2016-11-09T04:08:21.457Z,1003.82
2016-11-09T04:09:21.394Z,1003.78
2016-11-09T04:10:21.331Z,1003.81
2016-11-09T04:11:21.270Z,1003.8
2016-11-09T04:12:21.210Z,1003.81
2016-11-09T04:13:21.148Z,1003.79
2016-11-09T04:14:21.086Z,1003.81
2016-11-09T04:15:21.026Z,1003.8
2016-11-09T04:16:20.962Z,1003.81
2016-11-09T04:17:20.900Z,1003.81
2016-11-09T04:18:20.837Z,1003.86
2016-11-09T04:19:20.776Z,1003.82
2016-11-09T04:20:20.717Z,1003.82
2016-11-09T04:21:20.653Z,1003.79
2016-11-09T04:22:20.596Z,1003.79
2016-11-09T04:23:20.531Z,1003.79
2016-11-09T04:24:20.469Z,1003.74
2016-11-09T04:25:20.405Z,1003.73
2016-11-09T04:26:20.343Z,1003.75
2016-11-09T04:27:20.282Z,1003.75
2016-11-09T04:28:20.220Z,1003.75
2016-11-09T04:29:20.159Z,1003.73
2016-11-09T04:30:20.096Z,1003.71
2016-11-09T04:31:20.036Z,1003.71
2016-11-09T04:32:19.972Z,1003.72
2016-11-09T04:33:19.914Z,1003.7
2016-11-09T04:34:19.849Z,1003.7
2016-11-09T04:35:19.794Z,1003.68
2016-11-09T04:36:19.727Z,1003.73
2016-11-09T04:37:19.665Z,1003.67
2016-11-09T04:38:19.602Z,1003.72
2016-11-09T04:39:19.541Z,1003.69
2016-11-09T04:40:19.480Z,1003.67
2016-11-09T04:41:19.417Z,1003.65
2016-11-09T04:42:19.471Z,1003.64
2016-11-09T04:43:19.293Z,1003.68
2016-11-09T04:44:19.232Z,1003.66
2016-11-09T04:45:19.170Z,1003.61
2016-11-09T04:46:19.109Z,1003.63
2016-11-09T04:47:19.046Z,1003.63
2016-11-09T04:48:18.985Z,1003.65
2016-11-09T04:49:18.922Z,1003.61
2016-11-09T04:50:18.863Z,1003.58
2016-11-09T04:51:18.800Z,1003.6
2016-11-09T04:52:18.940Z,1003.59
2016-11-09T04:53:18.676Z,1003.58
2016-11-09T04:54:18.614Z,1003.59
2016-11-09T04:55:18.553Z,1003.53
2016-11-09T04:56:18.490Z,1003.61
2016-11-09T04:57:18.429Z,1003.57
2016-11-09T04:58:18.367Z,1003.56
2016-11-09T04:59:18.305Z,1003.57
2016-11-09T05:00:18.249Z,1003.58
2016-11-09T05:01:18.183Z,1003.59
2016-11-09T05:02:18.119Z,1003.54
2016-11-09T05:03:18.059Z,1003.52
2016-11-09T05:04:17.997Z,1003.54
2016-11-09T05:05:17.934Z,1003.52
2016-11-09T05:06:17.873Z,1003.51
2016-11-09T05:07:17.811Z,1003.52
2016-11-09T05:08:17.751Z,1003.51
2016-11-09T05:09:17.689Z,1003.5
2016-11-09T05:10:17.626Z,1003.51
2016-11-09T05:11:17.566Z,1003.49
2016-11-09T05:12:17.503Z,1003.53
2016-11-09T05:13:17.444Z,1003.55
2016-11-09T05:14:17.379Z,1003.66
2016-11-09T05:15:17.317Z,1003.6
2016-11-09T05:16:17.255Z,1003.56
2016-11-09T05:17:17.192Z,1003.56
2016-11-09T05:18:17.131Z,1003.54
2016-11-09T05:19:17.070Z,1003.54
2016-11-09T05:20:17.008Z,1003.5
2016-11-09T05:21:16.946Z,1003.5
2016-11-09T05:22:16.885Z,1003.57
2016-11-09T05:23:16.821Z,1003.54
2016-11-09T05:24:16.760Z,1003.54
2016-11-09T05:25:16.702Z,1003.55
2016-11-09T05:26:16.638Z,1003.54
2016-11-09T05:27:16.580Z,1003.58
2016-11-09T05:28:16.513Z,1003.51
2016-11-09T05:29:16.451Z,1003.54
2016-11-09T05:30:16.391Z,1003.56
2016-11-09T05:31:16.328Z,1003.52
2016-11-09T05:32:16.266Z,1003.54
2016-11-09T05:33:16.205Z,1003.54
2016-11-09T05:34:16.143Z,1003.51
2016-11-09T05:35:16.080Z,1003.51
2016-11-09T05:36:16.020Z,1003.47
2016-11-09T05:37:15.957Z,1003.5
2016-11-09T05:38:15.894Z,1003.48
2016-11-09T05:39:15.833Z,1003.51
2016-11-09T05:40:15.770Z,1003.51
2016-11-09T05:41:15.709Z,1003.49
2016-11-09T05:42:15.648Z,1003.48
2016-11-09T05:43:15.586Z,1003.5
2016-11-09T05:44:15.524Z,1003.46
2016-11-09T05:45:15.460Z,1003.52
2016-11-09T05:46:15.400Z,1003.53
2016-11-09T05:47:15.340Z,1003.5
2016-11-09T05:48:15.275Z,1003.5
2016-11-09T05:49:15.212Z,1003.52
2016-11-09T05:50:15.153Z,1003.57
2016-11-09T05:51:15.089Z,1003.54
2016-11-09T05:52:15.028Z,1003.56
2016-11-09T05:53:14.965Z,1003.55
2016-11-09T05:54:14.903Z,1003.53
2016-11-09T05:55:14.843Z,1003.53
2016-11-09T05:56:14.780Z,1003.57
2016-11-09T05:57:14.718Z,1003.6
2016-11-09T05:58:14.657Z,1003.56
2016-11-09T05:59:14.595Z,1003.53
2016-11-09T06:00:14.653Z,1003.57
2016-11-09T06:01:14.470Z,1003.57
2016-11-09T06:02:14.408Z,1003.55
2016-11-09T06:03:14.346Z,1003.54
2016-11-09T06:04:14.284Z,1003.54
2016-11-09T06:05:14.222Z,1003.58
2016-11-09T06:06:14.161Z,1003.54
2016-11-09T06:07:14.098Z,1003.54
2016-11-09T06:08:14.035Z,1003.55
2016-11-09T06:09:13.974Z,1003.53
2016-11-09T06:10:13.914Z,1003.55
2016-11-09T06:11:13.849Z,1003.54
2016-11-09T06:12:13.787Z,1003.54
2016-11-09T06:13:13.726Z,1003.55
2016-11-09T06:14:13.665Z,1003.54
2016-11-09T06:15:13.601Z,1003.55
2016-11-09T06:16:13.542Z,1003.52
2016-11-09T06:17:13.478Z,1003.52
2016-11-09T06:18:13.415Z,1003.54
2016-11-09T06:19:13.353Z,1003.52
2016-11-09T06:20:13.293Z,1003.53
2016-11-09T06:21:13.233Z,1003.54
2016-11-09T06:22:13.167Z,1003.53
2016-11-09T06:23:13.105Z,1003.56
2016-11-09T06:24:13.047Z,1003.6
2016-11-09T06:25:12.981Z,1003.63
2016-11-09T06:26:12.919Z,1003.59
2016-11-09T06:27:12.858Z,1003.58
2016-11-09T06:28:12.795Z,1003.63
2016-11-09T06:29:12.732Z,1003.62
2016-11-09T06:30:12.673Z,1003.57
2016-11-09T06:31:12.609Z,1003.62
2016-11-09T06:32:12.547Z,1003.6
2016-11-09T06:33:12.492Z,1003.56
2016-11-09T06:34:12.429Z,1003.57
2016-11-09T06:35:12.362Z,1003.58
2016-11-09T06:36:12.300Z,1003.61
2016-11-09T06:37:12.239Z,1003.62
2016-11-09T06:38:12.175Z,1003.6
2016-11-09T06:39:12.118Z,1003.55
2016-11-09T06:40:12.051Z,1003.56
2016-11-09T06:41:11.988Z,1003.57
2016-11-09T06:42:11.928Z,1003.57
2016-11-09T06:43:11.865Z,1003.59
2016-11-09T06:44:11.809Z,1003.59
2016-11-09T06:45:11.745Z,1003.6
2016-11-09T06:46:11.678Z,1003.63
2016-11-09T06:47:11.618Z,1003.63
2016-11-09T06:48:11.554Z,1003.62
2016-11-09T06:49:11.494Z,1003.56
2016-11-09T06:50:11.431Z,1003.63
2016-11-09T06:51:11.369Z,1003.6
2016-11-09T06:52:11.306Z,1003.62
2016-11-09T06:53:11.244Z,1003.65
2016-11-09T06:54:11.183Z,1003.65
2016-11-09T06:55:11.119Z,1003.62
2016-11-09T06:56:11.057Z,1003.63
2016-11-09T06:57:10.995Z,1003.66
2016-11-09T06:58:10.933Z,1003.67
2016-11-09T06:59:10.871Z,1003.65
2016-11-09T07:00:10.808Z,1003.67
2016-11-09T07:01:10.748Z,1003.67
2016-11-09T07:02:10.685Z,1003.7
2016-11-09T07:03:10.622Z,1003.68
2016-11-09T07:04:10.560Z,1003.68
2016-11-09T07:05:10.509Z,1003.63
2016-11-09T07:06:10.437Z,1003.68
2016-11-09T07:07:10.375Z,1003.63
2016-11-09T07:08:10.311Z,1003.64
2016-11-09T07:09:10.250Z,1003.66
2016-11-09T07:10:10.191Z,1003.67
2016-11-09T07:11:10.128Z,1003.63
2016-11-09T07:12:10.063Z,1003.66
2016-11-09T07:13:10.006Z,1003.63
2016-11-09T07:14:09.939Z,1003.64
2016-11-09T07:15:09.877Z,1003.58
2016-11-09T07:16:09.816Z,1003.57
2016-11-09T07:17:09.775Z,1003.57
2016-11-09T07:18:09.689Z,1003.57
2016-11-09T07:19:09.631Z,1003.56
2016-11-09T07:20:09.570Z,1003.57
2016-11-09T07:21:09.503Z,1003.54
2016-11-09T07:22:09.450Z,1003.53
2016-11-09T07:23:09.379Z,1003.53
2016-11-09T07:24:09.318Z,1003.51
2016-11-09T07:25:09.264Z,1003.48
2016-11-09T07:26:09.194Z,1003.52
2016-11-09T07:27:09.130Z,1003.49
2016-11-09T07:28:09.080Z,1003.51
2016-11-09T07:29:09.006Z,1003.53
2016-11-09T07:30:08.943Z,1003.53
2016-11-09T07:31:08.898Z,1003.54
2016-11-09T07:32:08.820Z,1003.52
2016-11-09T07:33:08.811Z,1003.52
2016-11-09T07:34:08.734Z,1003.5
2016-11-09T07:35:08.644Z,1003.52
2016-11-09T07:36:08.588Z,1003.51
2016-11-09T07:37:08.512Z,1003.48
2016-11-09T07:38:08.450Z,1003.49
2016-11-09T07:39:14.479Z,1003.46
2016-11-09T07:40:08.397Z,1003.51
2016-11-09T07:41:08.364Z,1003.46
2016-11-09T07:42:08.237Z,1003.52
2016-11-09T07:43:08.179Z,1003.53
2016-11-09T07:44:08.119Z,1003.55
2016-11-09T07:45:08.115Z,1003.56
2016-11-09T07:46:08.006Z,1003.53
2016-11-09T07:47:07.937Z,1003.52
2016-11-09T07:48:07.872Z,1003.59
2016-11-09T07:49:07.809Z,1003.61
2016-11-09T07:50:07.803Z,1003.6
2016-11-09T07:51:07.691Z,1003.61
2016-11-09T07:52:07.626Z,1003.61
2016-11-09T07:53:07.565Z,1003.61
2016-11-09T07:54:07.500Z,1003.62
2016-11-09T07:55:07.495Z,1003.64
2016-11-09T07:56:07.579Z,1003.64
2016-11-09T07:57:07.313Z,1003.65
2016-11-09T07:58:07.254Z,1003.65
2016-11-09T07:59:07.193Z,1003.65
2016-11-09T08:00:07.179Z,1003.58
2016-11-09T08:01:07.068Z,1003.61
2016-11-09T08:02:07.003Z,1003.6
2016-11-09T08:03:06.946Z,1003.58
2016-11-09T08:04:06.881Z,1003.63
2016-11-09T08:05:06.868Z,1003.57
2016-11-09T08:06:06.751Z,1003.63
2016-11-09T08:07:06.696Z,1003.61
2016-11-09T08:08:06.636Z,1003.6
2016-11-09T08:09:06.568Z,1003.62
2016-11-09T08:10:06.705Z,1003.56
2016-11-09T08:11:06.444Z,1003.62
2016-11-09T08:12:06.377Z,1003.57
2016-11-09T08:13:06.309Z,1003.51
2016-11-09T08:14:06.253Z,1003.53
2016-11-09T08:15:06.168Z,1003.49
2016-11-09T08:16:06.106Z,1003.48
2016-11-09T08:17:06.020Z,1003.47
2016-11-09T08:18:05.967Z,1003.48
2016-11-09T08:19:05.892Z,1003.49
2016-11-09T08:20:05.877Z,1003.47
2016-11-09T08:21:05.780Z,1003.44
2016-11-09T08:22:05.712Z,1003.47
2016-11-09T08:23:05.679Z,1003.45
2016-11-09T08:24:05.634Z,1003.47
2016-11-09T08:25:05.563Z,1003.46
2016-11-09T08:26:05.489Z,1003.45
2016-11-09T08:27:05.424Z,1003.41
2016-11-09T08:28:05.379Z,1003.41
2016-11-09T08:29:05.290Z,1003.42
2016-11-09T08:30:05.205Z,1003.46
2016-11-09T08:31:05.147Z,1003.46
2016-11-09T08:32:05.080Z,1003.46
2016-11-09T08:33:05.038Z,1003.44
2016-11-09T08:34:04.968Z,1003.46
2016-11-09T08:35:04.893Z,1003.46
2016-11-09T08:36:04.831Z,1003.4
2016-11-09T08:37:04.769Z,1003.46
2016-11-09T08:38:04.705Z,1003.43
2016-11-09T08:39:04.642Z,1003.47
2016-11-09T08:40:04.584Z,1003.43
2016-11-09T08:41:04.517Z,1003.45
2016-11-09T08:42:04.457Z,1003.45
2016-11-09T08:43:04.400Z,1003.48
2016-11-09T08:44:04.333Z,1003.44
2016-11-09T08:45:04.271Z,1003.46
2016-11-09T08:46:04.217Z,1003.47
2016-11-09T08:47:04.145Z,1003.46
2016-11-09T08:48:04.081Z,1003.41
2016-11-09T08:49:04.027Z,1003.45
2016-11-09T08:50:03.962Z,1003.45
2016-11-09T08:51:03.893Z,1003.42
2016-11-09T08:52:03.830Z,1003.43
2016-11-09T08:53:03.769Z,1003.46
2016-11-09T08:54:03.707Z,1003.43
2016-11-09T08:55:03.647Z,1003.47
2016-11-09T08:56:03.585Z,1003.42
2016-11-09T08:57:03.519Z,1003.4
2016-11-09T08:58:03.455Z,1003.4
2016-11-09T08:59:03.394Z,1003.41
2016-11-09T09:00:03.340Z,1003.39
2016-11-09T09:01:03.294Z,1003.38
2016-11-09T09:02:03.207Z,1003.37
2016-11-09T09:03:03.150Z,1003.38
2016-11-09T09:04:03.080Z,1003.37
2016-11-09T09:05:03.020Z,1003.32
2016-11-09T09:06:03.132Z,1003.34
2016-11-09T09:07:02.905Z,1003.3
2016-11-09T09:08:02.917Z,1003.27
2016-11-09T09:09:02.773Z,1003.27
2016-11-09T09:10:02.717Z,1003.27
2016-11-09T09:11:02.659Z,1003.28
2016-11-09T09:12:02.590Z,1003.24
2016-11-09T09:13:02.534Z,1003.16
2016-11-09T09:14:02.469Z,1003.18
2016-11-09T09:15:02.463Z,1003.13
2016-11-09T09:16:02.330Z,1003.14
2016-11-09T09:17:02.277Z,1003.15
2016-11-09T09:18:02.204Z,1003.09
2016-11-09T09:19:02.155Z,1003.07
2016-11-09T09:20:02.152Z,1003.1
2016-11-09T09:21:02.036Z,1003.09
2016-11-09T09:22:01.967Z,1003.07
2016-11-09T09:23:01.918Z,1003.1
2016-11-09T09:24:01.846Z,1003.11
2016-11-09T09:25:01.801Z,1003.08
2016-11-09T09:26:01.758Z,1003.12
2016-11-09T09:27:01.677Z,1003.07
2016-11-09T09:28:01.599Z,1003.11
2016-11-09T09:29:01.588Z,1003.08
2016-11-09T09:30:01.477Z,1003.12
2016-11-09T09:31:01.443Z,1003.11
2016-11-09T09:32:01.387Z,1003.15
2016-11-09T09:33:01.318Z,1003.15
2016-11-09T09:34:01.220Z,1003.13
2016-11-09T09:35:01.225Z,1003.12
2016-11-09T09:36:01.096Z,1003.08
2016-11-09T09:37:01.031Z,1003.06
2016-11-09T09:38:00.983Z,1003.05
2016-11-09T09:39:00.933Z,1003.03
2016-11-09T09:40:00.850Z,1003.03
2016-11-09T09:41:00.788Z,1003.01
2016-11-09T09:42:00.720Z,1003.05
2016-11-09T09:43:00.674Z,1003.05
2016-11-09T09:44:00.594Z,1003.05
2016-11-09T09:45:00.530Z,1003.06
2016-11-09T09:46:00.470Z,1003.02
2016-11-09T09:47:00.434Z,1003.04
2016-11-09T09:48:00.337Z,1003
2016-11-09T09:49:00.270Z,1003.01
2016-11-09T09:50:00.208Z,1002.96
2016-11-09T09:51:00.153Z,1002.98
2016-11-09T09:52:00.080Z,1002.97
2016-11-09T09:53:00.029Z,1002.98
2016-11-09T09:53:59.959Z,1002.96
2016-11-09T09:54:59.895Z,1002.95
2016-11-09T09:55:59.833Z,1002.94
2016-11-09T09:56:59.777Z,1002.94
2016-11-09T09:57:59.706Z,1002.91
2016-11-09T09:58:59.656Z,1002.93
2016-11-09T09:59:59.595Z,1002.87
2016-11-09T10:00:59.523Z,1002.87
2016-11-09T10:01:59.456Z,1002.87
2016-11-09T10:02:59.399Z,1002.84
2016-11-09T10:03:59.334Z,1002.84
2016-11-09T10:04:59.274Z,1002.81
2016-11-09T10:05:59.207Z,1002.83
2016-11-09T10:06:59.148Z,1002.81
2016-11-09T10:07:59.085Z,1002.81
2016-11-09T10:08:59.024Z,1002.8
2016-11-09T10:09:58.960Z,1002.78
2016-11-09T10:10:58.924Z,1002.79
2016-11-09T10:11:58.857Z,1002.76
2016-11-09T10:12:58.773Z,1002.74
2016-11-09T10:13:58.716Z,1002.73
2016-11-09T10:14:58.649Z,1002.72
2016-11-09T10:15:58.583Z,1002.77
2016-11-09T10:16:58.520Z,1002.77
2016-11-09T10:17:58.459Z,1002.76
2016-11-09T10:18:58.395Z,1002.77
2016-11-09T10:19:58.333Z,1002.75
2016-11-09T10:20:58.270Z,1002.79
2016-11-09T10:21:58.211Z,1002.74
2016-11-09T10:22:58.146Z,1002.76
2016-11-09T10:23:58.085Z,1002.73
2016-11-09T10:24:58.020Z,1002.68
2016-11-09T10:25:57.959Z,1002.67
2016-11-09T10:26:57.894Z,1002.7
2016-11-09T10:27:57.835Z,1002.67
2016-11-09T10:28:57.783Z,1002.65
2016-11-09T10:29:57.708Z,1002.61
2016-11-09T10:30:57.770Z,1002.57
2016-11-09T10:31:57.584Z,1002.59
2016-11-09T10:32:57.522Z,1002.55
2016-11-09T10:33:57.459Z,1002.54
2016-11-09T10:34:57.396Z,1002.54
2016-11-09T10:35:57.333Z,1002.5
2016-11-09T10:36:57.271Z,1002.51
2016-11-09T10:37:57.209Z,1002.46
2016-11-09T10:38:57.149Z,1002.47
2016-11-09T10:39:57.095Z,1002.47
2016-11-09T10:40:57.027Z,1002.5
2016-11-09T10:41:56.958Z,1002.46
2016-11-09T10:42:56.902Z,1002.47
2016-11-09T10:43:56.845Z,1002.46
2016-11-09T10:44:56.771Z,1002.41
2016-11-09T10:45:56.729Z,1002.41
2016-11-09T10:46:56.660Z,1002.4
2016-11-09T10:47:56.592Z,1002.39
2016-11-09T10:48:56.520Z,1002.4
2016-11-09T10:49:56.468Z,1002.35
2016-11-09T10:50:56.433Z,1002.37
2016-11-09T10:51:56.342Z,1002.34
2016-11-09T10:52:56.287Z,1002.33
2016-11-09T10:53:56.209Z,1002.33
2016-11-09T10:54:56.149Z,1002.28
2016-11-09T10:55:56.085Z,1002.3
2016-11-09T10:56:56.023Z,1002.26
2016-11-09T10:57:55.983Z,1002.26
2016-11-09T10:58:55.903Z,1002.28
2016-11-09T10:59:55.844Z,1002.31
2016-11-09T11:00:55.787Z,1002.28
2016-11-09T11:01:55.710Z,1002.31
2016-11-09T11:02:55.646Z,1002.32
2016-11-09T11:03:55.583Z,1002.29
2016-11-09T11:04:55.526Z,1002.32
2016-11-09T11:05:55.458Z,1002.29
2016-11-09T11:06:55.395Z,1002.3
2016-11-09T11:07:55.333Z,1002.31
2016-11-09T11:08:55.276Z,1002.25
2016-11-09T11:09:55.209Z,1002.3
2016-11-09T11:10:55.146Z,1002.31
2016-11-09T11:11:55.126Z,1002.36
2016-11-09T11:12:55.034Z,1002.38
2016-11-09T11:13:54.959Z,1002.36
2016-11-09T11:14:54.895Z,1002.4
2016-11-09T11:15:54.844Z,1002.39
2016-11-09T11:16:54.771Z,1002.37
2016-11-09T11:17:54.708Z,1002.38
2016-11-09T11:18:54.648Z,1002.41
2016-11-09T11:19:54.584Z,1002.39
2016-11-09T11:20:54.522Z,1002.37
2016-11-09T11:21:54.470Z,1002.37
2016-11-09T11:22:54.430Z,1002.38
2016-11-09T11:23:54.335Z,1002.33
2016-11-09T11:24:54.274Z,1002.37
2016-11-09T11:25:54.210Z,1002.34
2016-11-09T11:26:54.147Z,1002.32
2016-11-09T11:27:54.096Z,1002.34
2016-11-09T11:28:54.025Z,1002.33
2016-11-09T11:29:53.965Z,1002.36
2016-11-09T11:30:53.898Z,1002.37
2016-11-09T11:31:53.836Z,1002.4
2016-11-09T11:32:53.774Z,1002.43
2016-11-09T11:33:53.710Z,1002.39
2016-11-09T11:34:53.648Z,1002.42
2016-11-09T11:35:53.586Z,1002.4
2016-11-09T11:36:53.523Z,1002.37
2016-11-09T11:37:53.460Z,1002.36
2016-11-09T11:38:53.403Z,1002.38
2016-11-09T11:40:53.273Z,1002.39
2016-11-09T11:41:53.213Z,1002.34
2016-11-09T11:42:53.149Z,1002.38
2016-11-09T11:43:53.085Z,1002.39
2016-11-09T11:44:53.027Z,1002.37
2016-11-09T11:45:52.961Z,1002.34
2016-11-09T11:46:52.897Z,1002.35
2016-11-09T11:47:52.842Z,1002.33
2016-11-09T11:48:52.776Z,1002.28
2016-11-09T11:49:52.713Z,1002.29
2016-11-09T11:50:52.652Z,1002.25
2016-11-09T11:51:52.586Z,1002.33
2016-11-09T11:52:52.525Z,1002.31
2016-11-09T11:53:52.460Z,1002.26
2016-11-09T11:54:52.400Z,1002.3
2016-11-09T11:55:52.346Z,1002.29
2016-11-09T11:56:52.274Z,1002.28
2016-11-09T11:57:52.230Z,1002.27
2016-11-09T11:58:52.150Z,1002.23
2016-11-09T11:59:52.088Z,1002.24
2016-11-09T12:00:52.207Z,1002.28
2016-11-09T12:01:51.974Z,1002.26
2016-11-09T12:02:51.900Z,1002.29
2016-11-09T12:03:51.838Z,1002.31
2016-11-09T12:04:51.774Z,1002.28
2016-11-09T12:05:51.726Z,1002.3
2016-11-09T12:06:51.650Z,1002.29
2016-11-09T12:07:51.587Z,1002.3
2016-11-09T12:08:51.527Z,1002.28